createdAt,value
2023-02-16T00:00:42.460Z,99854.34
2023-02-16T00:03:16.496Z,99859.03
2023-02-16T00:05:44.327Z,99856.66
2023-02-16T00:08:11.966Z,99858.13
2023-02-16T00:10:40.147Z,99862.81
2023-02-16T00:13:44.281Z,99854.28
2023-02-16T00:16:17.293Z,99863.16
2023-02-16T00:18:44.974Z,99856.28
2023-02-16T00:21:12.343Z,99854.94
2023-02-16T00:23:39.424Z,99854.94
2023-02-16T00:26:13.606Z,99854.09
2023-02-16T00:28:41.163Z,99857.63
2023-02-16T00:31:18.134Z,99856.94
2023-02-16T00:33:46.010Z,99847.38
2023-02-16T00:36:13.319Z,99852.91
2023-02-16T00:38:40.591Z,99853.56
2023-02-16T00:41:36.822Z,99857.91
2023-02-16T00:44:04.447Z,99846.69
2023-02-16T00:46:32.552Z,99846.50
2023-02-16T00:48:59.889Z,99844.31
2023-02-16T00:51:27.768Z,99841.78
2023-02-16T00:53:55.280Z,99851.50
2023-02-16T00:56:23.487Z,99853.12
2023-02-16T00:58:53.149Z,99840.44
2023-02-16T01:01:24.776Z,99835.09
2023-02-16T01:03:52.126Z,99832.25
2023-02-16T01:06:38.153Z,99836.25
2023-02-16T01:09:37.065Z,99840.59
2023-02-16T01:12:09.295Z,99832.06
2023-02-16T01:14:36.960Z,99827.06
2023-02-16T01:17:03.984Z,99822.53
2023-02-16T01:19:31.323Z,99819.03
2023-02-16T01:21:58.631Z,99808.50
2023-02-16T01:24:25.969Z,99813.50
2023-02-16T01:27:37.294Z,99807.78
2023-02-16T01:30:06.890Z,99809.47
2023-02-16T01:32:34.531Z,99806.25
2023-02-16T01:35:01.517Z,99802.59
2023-02-16T01:37:28.873Z,99799.06
2023-02-16T01:39:55.805Z,99800.06
2023-02-16T01:42:37.091Z,99795.41
2023-02-16T01:45:19.005Z,99787.53
2023-02-16T01:47:56.265Z,99792.19
2023-02-16T01:50:28.962Z,99795.34
2023-02-16T01:53:03.927Z,99781.66
2023-02-16T01:55:37.228Z,99787.97
2023-02-16T01:59:03.376Z,99787.28
2023-02-16T02:01:37.665Z,99778.81
2023-02-16T02:04:39.332Z,99772.09
2023-02-16T02:07:06.598Z,99767.91
2023-02-16T02:10:10.062Z,99768.06
2023-02-16T02:13:05.938Z,99766.06
2023-02-16T02:15:34.402Z,99763.56
2023-02-16T02:18:01.889Z,99771.41
2023-02-16T02:20:48.781Z,99765.91
2023-02-16T02:23:32.968Z,99765.88
2023-02-16T02:26:20.216Z,99770.53
2023-02-16T02:28:55.953Z,99765.19
2023-02-16T02:31:37.265Z,99756.84
2023-02-16T02:34:15.865Z,99753.50
2023-02-16T02:36:59.222Z,99747.16
2023-02-16T02:39:46.524Z,99754.16
2023-02-16T02:42:32.474Z,99756.84
2023-02-16T02:45:07.402Z,99758.59
2023-02-16T02:47:47.209Z,99755.41
2023-02-16T02:51:06.863Z,99754.75
2023-02-16T02:53:41.543Z,99749.09
2023-02-16T02:56:28.688Z,99753.41
2023-02-16T02:59:19.244Z,99756.22
2023-02-16T03:01:54.584Z,99743.03
2023-02-16T03:04:25.858Z,99749.03
2023-02-16T03:06:56.237Z,99744.38
2023-02-16T03:09:23.849Z,99746.69
2023-02-16T03:12:13.027Z,99742.72
2023-02-16T03:15:01.641Z,99747.38
2023-02-16T03:17:53.978Z,99744.19
2023-02-16T03:20:40.365Z,99747.63
2023-02-16T03:23:27.710Z,99748.75
2023-02-16T03:26:13.484Z,99746.53
2023-02-16T03:29:01.627Z,99740.38
2023-02-16T03:31:35.995Z,99732.13
2023-02-16T03:34:03.141Z,99723.59
2023-02-16T03:36:33.531Z,99718.78
2023-02-16T03:39:01.264Z,99716.12
2023-02-16T03:41:33.015Z,99716.28
2023-02-16T03:44:00.069Z,99718.94
2023-02-16T03:46:27.063Z,99723.44
2023-02-16T03:48:53.988Z,99717.81
2023-02-16T03:51:20.814Z,99721.94
2023-02-16T03:53:47.877Z,99724.91
2023-02-16T03:56:14.687Z,99727.22
2023-02-16T03:58:41.600Z,99722.50
2023-02-16T04:01:08.720Z,99722.72
2023-02-16T04:03:51.500Z,99723.25
2023-02-16T04:06:18.488Z,99723.91
2023-02-16T04:08:45.529Z,99735.44
2023-02-16T04:11:30.996Z,99732.44
2023-02-16T04:13:58.084Z,99740.09
2023-02-16T04:16:25.144Z,99745.44
2023-02-16T04:18:52.166Z,99743.22
2023-02-16T04:21:19.162Z,99745.75
2023-02-16T04:23:46.133Z,99737.88
2023-02-16T04:26:13.322Z,99740.72
2023-02-16T04:28:40.263Z,99739.34
2023-02-16T04:31:07.548Z,99727.69
2023-02-16T04:33:34.932Z,99735.84
2023-02-16T04:36:01.924Z,99736.00
2023-02-16T04:38:28.865Z,99731.81
2023-02-16T04:40:55.825Z,99737.00
2023-02-16T04:43:22.820Z,99727.16
2023-02-16T04:45:49.796Z,99726.63
2023-02-16T04:48:16.796Z,99723.44
2023-02-16T04:50:43.797Z,99724.41
2023-02-16T04:53:10.793Z,99723.53
2023-02-16T04:55:37.771Z,99722.91
2023-02-16T04:58:04.688Z,99720.91
2023-02-16T05:00:31.670Z,99725.94
2023-02-16T05:02:58.631Z,99724.72
2023-02-16T05:05:41.178Z,99725.72
2023-02-16T05:08:08.321Z,99726.41
2023-02-16T05:10:35.361Z,99722.38
2023-02-16T05:13:21.090Z,99730.38
2023-02-16T05:15:48.342Z,99720.19
2023-02-16T05:18:15.475Z,99718.50
2023-02-16T05:21:01.433Z,99723.00
2023-02-16T05:23:28.505Z,99711.25
2023-02-16T05:25:55.426Z,99719.97
2023-02-16T05:28:22.354Z,99726.13
2023-02-16T05:30:49.364Z,99726.41
2023-02-16T05:33:16.540Z,99722.69
2023-02-16T05:35:43.691Z,99721.72
2023-02-16T05:38:10.820Z,99729.34
2023-02-16T05:40:37.797Z,99724.38
2023-02-16T05:43:04.822Z,99726.34
2023-02-16T05:45:31.820Z,99734.34
2023-02-16T05:47:58.825Z,99736.34
2023-02-16T05:50:25.831Z,99738.00
2023-02-16T05:52:52.834Z,99733.06
2023-02-16T05:55:19.942Z,99740.75
2023-02-16T05:57:46.985Z,99739.59
2023-02-16T06:00:14.603Z,99744.81
2023-02-16T06:02:41.668Z,99741.81
2023-02-16T06:05:08.784Z,99747.16
2023-02-16T06:07:35.766Z,99746.53
2023-02-16T06:10:03.479Z,99749.56
2023-02-16T06:12:32.461Z,99749.56
2023-02-16T06:14:59.422Z,99748.13
2023-02-16T06:17:26.785Z,99747.84
2023-02-16T06:19:53.858Z,99743.03
2023-02-16T06:22:21.351Z,99750.72
2023-02-16T06:24:48.291Z,99746.88
2023-02-16T06:27:15.261Z,99741.91
2023-02-16T06:29:42.239Z,99747.94
2023-02-16T06:32:09.484Z,99758.28
2023-02-16T06:34:36.478Z,99757.13
2023-02-16T06:37:03.762Z,99757.69
2023-02-16T06:45:51.527Z,99758.16
2023-02-16T06:48:18.797Z,99758.16
2023-02-16T06:50:45.851Z,99763.03
2023-02-16T06:53:12.821Z,99767.91
2023-02-16T06:55:39.814Z,99772.75
2023-02-16T06:58:07.534Z,99765.13
2023-02-16T07:00:34.888Z,99766.63
2023-02-16T07:03:02.306Z,99765.47
2023-02-16T07:05:29.472Z,99771.19
2023-02-16T07:07:56.642Z,99777.22
2023-02-16T07:10:23.726Z,99775.91
2023-02-16T07:12:50.888Z,99775.28
2023-02-16T07:15:18.074Z,99774.94
2023-02-16T07:17:45.097Z,99776.47
2023-02-16T07:20:13.158Z,99772.34
2023-02-16T07:22:40.361Z,99770.34
2023-02-16T07:25:07.554Z,99779.03
2023-02-16T07:27:34.506Z,99781.38
2023-02-16T07:30:01.612Z,99787.41
2023-02-16T07:32:29.778Z,99779.91
2023-02-16T07:34:56.861Z,99776.25
2023-02-16T07:37:23.924Z,99783.09
2023-02-16T07:39:50.963Z,99781.94
2023-02-16T07:42:18.170Z,99783.47
2023-02-16T07:44:45.176Z,99779.66
2023-02-16T07:47:13.668Z,99783.00
2023-02-16T07:49:41.374Z,99788.00
2023-02-16T07:52:08.385Z,99785.84
2023-02-16T07:54:35.476Z,99790.03
2023-02-16T07:57:04.512Z,99785.38
2023-02-16T07:59:31.473Z,99785.88
2023-02-16T08:01:58.581Z,99780.22
2023-02-16T08:04:25.696Z,99786.09
2023-02-16T08:06:52.786Z,99789.28
2023-02-16T08:09:20.394Z,99788.78
2023-02-16T08:11:47.307Z,99785.47
2023-02-16T08:14:16.089Z,99782.63
2023-02-16T08:16:43.093Z,99784.81
2023-02-16T08:19:12.174Z,99779.00
2023-02-16T08:21:39.925Z,99781.84
2023-02-16T08:24:15.462Z,99780.50
2023-02-16T08:26:56.448Z,99772.66
2023-02-16T08:29:31.126Z,99785.22
2023-02-16T08:31:58.290Z,99783.56
2023-02-16T08:34:26.528Z,99789.25
2023-02-16T08:36:56.800Z,99792.97
2023-02-16T08:39:26.831Z,99788.91
2023-02-16T08:41:55.002Z,99797.94
2023-02-16T08:44:23.994Z,99790.63
2023-02-16T08:46:52.980Z,99787.44
2023-02-16T08:49:41.393Z,99778.22
2023-02-16T08:52:10.358Z,99782.25
2023-02-16T08:54:37.397Z,99783.59
2023-02-16T08:57:07.615Z,99778.59
2023-02-16T08:59:35.049Z,99786.28
2023-02-16T09:02:02.654Z,99787.63
2023-02-16T09:04:30.535Z,99785.25
2023-02-16T09:06:58.555Z,99792.94
2023-02-16T09:09:26.639Z,99782.75
2023-02-16T09:11:53.988Z,99789.47
2023-02-16T09:14:21.727Z,99784.59
2023-02-16T09:16:49.175Z,99791.47
2023-02-16T09:19:19.080Z,99787.44
2023-02-16T09:21:47.367Z,99786.91
2023-02-16T09:24:14.480Z,99791.75
2023-02-16T09:26:43.082Z,99794.97
2023-02-16T09:29:12.619Z,99795.28
2023-02-16T09:31:40.059Z,99792.25
2023-02-16T09:34:21.068Z,99790.72
2023-02-16T09:36:49.818Z,99787.53
2023-02-16T09:39:17.691Z,99790.69
2023-02-16T09:41:55.923Z,99780.50
2023-02-16T09:44:51.246Z,99791.53
2023-02-16T09:47:31.050Z,99790.19
2023-02-16T09:50:05.202Z,99791.50
2023-02-16T09:52:40.433Z,99793.66
2023-02-16T09:55:13.789Z,99793.16
2023-02-16T09:57:58.487Z,99793.66
2023-02-16T10:00:34.528Z,99799.31
2023-02-16T10:03:23.868Z,99806.00
2023-02-16T10:06:10.719Z,99800.28
2023-02-16T10:08:51.476Z,99811.31
2023-02-16T10:11:38.806Z,99806.31
2023-02-16T10:14:14.978Z,99810.13
2023-02-16T10:16:49.951Z,99803.41
2023-02-16T10:19:26.098Z,99795.66
2023-02-16T10:21:58.776Z,99802.19
2023-02-16T10:24:31.718Z,99799.81
2023-02-16T10:27:10.626Z,99796.59
2023-02-16T10:29:37.710Z,99797.72
2023-02-16T10:42:03.625Z,99759.41
2023-02-16T10:44:57.123Z,99759.41
2023-02-16T10:47:33.006Z,99772.00
2023-02-16T10:50:00.625Z,99771.16
2023-02-16T10:52:33.950Z,99766.72
2023-02-16T10:55:01.594Z,99765.16
2023-02-16T10:57:33.351Z,99775.03
2023-02-16T11:00:06.987Z,99755.50
2023-02-16T11:02:42.286Z,99750.41
2023-02-16T11:05:32.638Z,99753.41
2023-02-16T11:08:03.860Z,99752.00
2023-02-16T11:10:39.434Z,99753.16
2023-02-16T11:13:08.175Z,99752.78
2023-02-16T11:15:38.197Z,99745.00
2023-02-16T11:18:18.518Z,99753.34
2023-02-16T11:20:45.310Z,99746.78
2023-02-16T11:23:17.948Z,99751.63
2023-02-16T11:26:05.725Z,99743.19
2023-02-16T11:28:32.837Z,99738.09
2023-02-16T11:31:19.765Z,99742.91
2023-02-16T11:34:03.315Z,99742.34
2023-02-16T11:36:38.435Z,99732.75
2023-02-16T11:39:18.773Z,99732.38
2023-02-16T11:41:51.228Z,99730.97
2023-02-16T11:44:39.860Z,99724.19
2023-02-16T11:47:21.084Z,99727.16
2023-02-16T11:49:49.024Z,99716.03
2023-02-16T11:52:30.665Z,99722.69
2023-02-16T11:54:59.921Z,99715.75
2023-02-16T11:57:31.129Z,99713.53
2023-02-16T11:59:59.614Z,99717.50
2023-02-16T12:02:51.935Z,99714.44
2023-02-16T12:05:19.401Z,99710.34
2023-02-16T12:07:57.607Z,99698.22
2023-02-16T12:10:45.592Z,99700.31
2023-02-16T12:13:18.215Z,99690.00
2023-02-16T12:16:12.109Z,99677.00
2023-02-16T12:18:50.904Z,99675.59
2023-02-16T12:21:26.470Z,99676.88
2023-02-16T12:24:23.347Z,99679.19
2023-02-16T12:26:55.066Z,99672.22
2023-02-16T12:29:59.353Z,99653.84
2023-02-16T12:32:41.444Z,99657.31
2023-02-16T12:35:32.781Z,99650.63
2023-02-16T12:38:11.442Z,99657.31
2023-02-16T12:40:53.857Z,99646.16
2023-02-16T12:43:42.622Z,99643.06
2023-02-16T12:46:25.168Z,99639.78
2023-02-16T12:48:58.923Z,99634.22
2023-02-16T12:51:30.924Z,99629.66
2023-02-16T12:54:15.713Z,99623.03
2023-02-16T12:56:47.757Z,99622.66
2023-02-16T12:59:29.908Z,99628.50
2023-02-16T13:02:01.684Z,99623.84
2023-02-16T13:05:03.445Z,99618.03
2023-02-16T13:07:38.878Z,99614.75
2023-02-16T13:10:27.039Z,99608.78
2023-02-16T13:12:53.844Z,99605.50
2023-02-16T13:15:40.536Z,99601.59
2023-02-16T13:18:19.741Z,99602.03
2023-02-16T13:20:59.392Z,99599.75
2023-02-16T13:23:50.900Z,99607.25
2023-02-16T13:26:42.210Z,99608.50
2023-02-16T13:29:23.064Z,99612.66
2023-02-16T13:32:05.764Z,99602.34
2023-02-16T13:35:07.178Z,99608.38
2023-02-16T13:37:57.426Z,99604.03
2023-02-16T13:40:34.347Z,99601.78
2023-02-16T13:43:26.561Z,99604.06
2023-02-16T13:45:54.594Z,99598.91
2023-02-16T13:48:39.117Z,99603.06
2023-02-16T13:51:18.432Z,99594.38
2023-02-16T13:53:54.811Z,99590.69
2023-02-16T13:56:35.129Z,99590.28
2023-02-16T13:59:19.863Z,99588.00
2023-02-16T14:01:54.877Z,99596.72
2023-02-16T14:04:27.469Z,99591.94
2023-02-16T14:07:03.409Z,99606.72
2023-02-16T14:09:31.633Z,99598.44
2023-02-16T14:11:59.567Z,99595.53
2023-02-16T14:14:27.774Z,99593.25
2023-02-16T14:16:54.745Z,99596.56
2023-02-16T14:19:26.699Z,99588.28
2023-02-16T14:21:53.734Z,99597.81
2023-02-16T14:24:43.080Z,99584.75
2023-02-16T14:27:13.340Z,99585.84
2023-02-16T14:30:14.492Z,99590.00
2023-02-16T14:32:49.521Z,99580.84
2023-02-16T14:35:25.361Z,99586.88
2023-02-16T14:38:24.860Z,99580.88
2023-02-16T14:41:00.110Z,99584.59
2023-02-16T14:43:33.292Z,99586.69
2023-02-16T14:46:18.850Z,99585.66
2023-02-16T14:49:05.011Z,99588.97
2023-02-16T14:51:37.920Z,99582.53
2023-02-16T14:54:38.002Z,99589.78
2023-02-16T14:57:12.830Z,99587.94
2023-02-16T14:59:55.470Z,99583.16
2023-02-16T15:02:29.428Z,99582.75
2023-02-16T15:04:57.203Z,99575.47
2023-02-16T15:07:28.016Z,99576.91
2023-02-16T15:09:59.750Z,99573.19
2023-02-16T15:12:32.833Z,99572.97
2023-02-16T15:15:10.128Z,99570.09
2023-02-16T15:17:48.298Z,99564.50
2023-02-16T15:20:24.978Z,99563.47
2023-02-16T15:23:20.168Z,99559.09
2023-02-16T15:25:58.995Z,99556.19
2023-02-16T15:28:32.494Z,99568.66
2023-02-16T15:31:03.576Z,99564.28
2023-02-16T15:33:36.376Z,99567.00
2023-02-16T15:36:14.859Z,99567.81
2023-02-16T15:39:03.238Z,99566.78
2023-02-16T15:41:34.410Z,99565.94
2023-02-16T15:44:02.772Z,99567.81
2023-02-16T15:46:33.346Z,99563.47
2023-02-16T15:49:20.833Z,99561.59
2023-02-16T15:51:49.374Z,99562.41
2023-02-16T15:54:35.709Z,99564.50
2023-02-16T15:57:41.157Z,99560.97
2023-02-16T16:00:25.534Z,99569.06
2023-02-16T16:02:56.298Z,99565.72
2023-02-16T16:05:36.924Z,99562.19
2023-02-16T16:08:04.733Z,99564.06
2023-02-16T16:10:41.394Z,99568.63
2023-02-16T16:13:29.866Z,99569.25
2023-02-16T16:16:02.047Z,99575.06
2023-02-16T16:18:37.508Z,99576.09
2023-02-16T16:21:13.592Z,99577.34
2023-02-16T16:23:41.032Z,99578.56
2023-02-16T16:26:20.933Z,99579.81
2023-02-16T16:28:48.210Z,99574.63
2023-02-16T16:31:21.720Z,99574.22
2023-02-16T16:34:10.573Z,99575.22
2023-02-16T16:36:47.802Z,99572.94
2023-02-16T16:39:18.801Z,99581.84
2023-02-16T16:42:06.985Z,99574.16
2023-02-16T16:44:38.779Z,99574.37
2023-02-16T16:47:40.252Z,99581.22
2023-02-16T16:50:18.615Z,99591.56
2023-02-16T16:52:50.500Z,99589.25
2023-02-16T16:55:21.930Z,99587.16
2023-02-16T16:57:55.633Z,99584.88
2023-02-16T17:00:25.877Z,99584.66
2023-02-16T17:02:53.893Z,99588.59
2023-02-16T17:05:21.524Z,99590.03
2023-02-16T17:07:50.326Z,99601.41
2023-02-16T17:10:20.388Z,99600.75
2023-02-16T17:12:52.380Z,99603.03
2023-02-16T17:15:51.880Z,99600.75
2023-02-16T17:18:21.635Z,99593.25
2023-02-16T17:20:51.928Z,99599.06
2023-02-16T17:23:21.868Z,99595.94
2023-02-16T17:25:51.504Z,99588.22
2023-02-16T17:28:22.596Z,99577.00
2023-02-16T17:30:50.783Z,99567.84
2023-02-16T17:33:19.549Z,99562.88
2023-02-16T17:35:48.432Z,99567.81
2023-02-16T17:38:22.256Z,99581.91
2023-02-16T17:40:53.116Z,99580.59
2023-02-16T17:43:23.202Z,99584.72
2023-02-16T17:45:56.352Z,99582.22
2023-02-16T17:48:28.412Z,99577.03
2023-02-16T17:51:00.024Z,99578.28
2023-02-16T17:53:28.837Z,99566.44
2023-02-16T17:55:59.908Z,99574.09
2023-02-16T17:58:30.268Z,99573.44
2023-02-16T18:00:59.334Z,99575.47
2023-02-16T18:03:27.982Z,99560.06
2023-02-16T18:05:58.106Z,99569.38
2023-02-16T18:08:26.638Z,99568.94
2023-02-16T18:11:02.432Z,99579.09
2023-02-16T18:13:34.984Z,99567.88
2023-02-16T18:16:07.936Z,99575.69
2023-02-16T18:18:39.782Z,99565.31
2023-02-16T18:21:08.412Z,99568.59
2023-02-16T18:23:37.274Z,99565.84
2023-02-16T18:26:07.113Z,99561.88
2023-02-16T18:28:35.625Z,99560.63
2023-02-16T18:31:07.902Z,99565.53
2023-02-16T18:33:36.476Z,99570.84
2023-02-16T18:36:06.233Z,99579.91
2023-02-16T18:38:43.197Z,99575.47
2023-02-16T18:41:14.011Z,99578.09
2023-02-16T18:43:42.294Z,99573.72
2023-02-16T18:46:11.223Z,99575.59
2023-02-16T18:48:39.832Z,99570.78
2023-02-16T18:51:10.052Z,99577.97
2023-02-16T18:53:41.671Z,99589.09
2023-02-16T18:56:12.674Z,99588.19
2023-02-16T18:58:42.510Z,99587.91
2023-02-16T19:01:16.290Z,99583.94
2023-02-16T19:03:45.714Z,99597.59
2023-02-16T19:06:14.151Z,99585.53
2023-02-16T19:08:42.605Z,99584.53
2023-02-16T19:11:11.397Z,99589.91
2023-02-16T19:13:40.198Z,99590.09
2023-02-16T19:16:09.455Z,99581.84
2023-02-16T19:18:38.182Z,99585.72
2023-02-16T19:21:08.370Z,99589.06
2023-02-16T19:23:40.145Z,99590.91
2023-02-16T19:26:11.501Z,99600.53
2023-02-16T19:28:41.107Z,99598.44
2023-02-16T19:31:17.694Z,99594.91
2023-02-16T19:33:50.270Z,99603.72
2023-02-16T19:36:20.869Z,99603.72
2023-02-16T19:38:50.565Z,99616.34
2023-02-16T19:41:28.635Z,99614.03
2023-02-16T19:44:01.212Z,99624.78
2023-02-16T19:46:29.099Z,99620.59
2023-02-16T19:49:00.937Z,99616.25
2023-02-16T19:51:29.501Z,99618.25
2023-02-16T19:53:59.720Z,99619.47
2023-02-16T19:56:29.403Z,99620.78
2023-02-16T19:58:59.459Z,99617.91
2023-02-16T20:01:29.070Z,99625.69
2023-02-16T20:03:58.179Z,99614.75
2023-02-16T20:06:29.762Z,99612.44
2023-02-16T20:09:00.076Z,99617.34
2023-02-16T20:11:31.153Z,99612.34
2023-02-16T20:13:59.416Z,99620.41
2023-02-16T20:16:30.233Z,99623.47
2023-02-16T20:18:59.588Z,99621.81
2023-02-16T20:21:29.668Z,99627.75
2023-02-16T20:24:04.365Z,99628.75
2023-02-16T20:26:38.928Z,99630.78
2023-02-16T20:29:10.645Z,99627.44
2023-02-16T20:31:42.547Z,99630.69
2023-02-16T20:34:12.625Z,99619.66
2023-02-16T20:36:42.766Z,99621.69
2023-02-16T20:39:11.685Z,99624.56
2023-02-16T20:41:42.483Z,99626.41
2023-02-16T20:44:11.601Z,99627.16
2023-02-16T20:46:43.363Z,99622.50
2023-02-16T20:49:13.676Z,99627.13
2023-02-16T20:51:42.457Z,99623.59
2023-02-16T20:54:12.375Z,99626.09
2023-02-16T20:56:41.054Z,99619.44
2023-02-16T20:59:12.034Z,99615.56
2023-02-16T21:01:52.715Z,99610.56
2023-02-16T21:04:21.505Z,99621.47
2023-02-16T21:06:50.530Z,99618.97
2023-02-16T21:09:18.855Z,99618.97
2023-02-16T21:11:46.871Z,99605.28
2023-02-16T21:14:15.951Z,99612.50
2023-02-16T21:16:44.418Z,99598.56
2023-02-16T21:19:22.499Z,99606.34
2023-02-16T21:21:51.687Z,99606.34
2023-02-16T21:24:20.298Z,99612.44
2023-02-16T21:26:49.233Z,99598.19
2023-02-16T21:29:16.645Z,99603.94
2023-02-16T21:31:44.143Z,99608.47
2023-02-16T21:34:14.371Z,99601.12
2023-02-16T21:36:41.893Z,99593.59
2023-02-16T21:39:09.521Z,99591.94
2023-02-16T21:41:36.838Z,99587.31
2023-02-16T21:44:06.028Z,99597.09
2023-02-16T21:46:44.573Z,99586.72
2023-02-16T21:49:17.554Z,99580.88
2023-02-16T21:51:46.756Z,99585.22
2023-02-16T21:54:39.089Z,99575.88
2023-02-16T21:57:05.997Z,99572.81
2023-02-16T21:59:33.314Z,99573.84
2023-02-16T22:02:00.154Z,99569.97
2023-02-16T22:04:26.947Z,99568.47
2023-02-16T22:06:54.751Z,99569.84
2023-02-16T22:09:23.445Z,99574.00
2023-02-16T22:11:51.193Z,99575.88
2023-02-16T22:14:18.395Z,99570.50
2023-02-16T22:16:47.111Z,99574.19
2023-02-16T22:19:16.991Z,99573.53
2023-02-16T22:21:45.396Z,99566.69
2023-02-16T22:24:14.481Z,99568.63
2023-02-16T22:26:41.561Z,99575.28
2023-02-16T22:29:08.967Z,99572.97
2023-02-16T22:31:36.901Z,99570.28
2023-02-16T22:34:08.749Z,99570.66
2023-02-16T22:36:37.551Z,99565.28
2023-02-16T22:39:04.899Z,99562.28
2023-02-16T22:41:32.042Z,99557.28
2023-02-16T22:44:00.041Z,99565.69
2023-02-16T22:46:28.809Z,99569.19
2023-02-16T22:48:58.546Z,99569.91
2023-02-16T22:51:29.016Z,99560.19
2023-02-16T22:54:00.555Z,99567.59
2023-02-16T22:56:28.451Z,99557.22
2023-02-16T22:58:57.504Z,99569.47
2023-02-16T23:01:26.691Z,99567.31
2023-02-16T23:03:57.372Z,99563.62
2023-02-16T23:06:28.177Z,99561.59
2023-02-16T23:08:58.194Z,99564.81
2023-02-16T23:11:26.471Z,99560.00
2023-02-16T23:13:53.735Z,99569.22
2023-02-16T23:16:23.159Z,99571.91
2023-02-16T23:18:50.458Z,99571.06
2023-02-16T23:21:22.957Z,99563.75
2023-02-16T23:23:51.253Z,99572.28
2023-02-16T23:26:19.650Z,99568.28
2023-02-16T23:28:50.840Z,99553.41
2023-02-16T23:31:18.051Z,99554.41
2023-02-16T23:33:45.014Z,99550.06
2023-02-16T23:36:12.038Z,99549.25
2023-02-16T23:38:38.990Z,99551.91
2023-02-16T23:41:08.508Z,99549.88
2023-02-16T23:43:35.743Z,99545.72
2023-02-16T23:46:03.088Z,99551.91
2023-02-16T23:48:31.408Z,99555.44
2023-02-16T23:50:58.335Z,99555.25
2023-02-16T23:53:26.733Z,99538.53
2023-02-16T23:56:02.980Z,99543.69
2023-02-16T23:58:31.814Z,99552.75
